createdAt,value
2017-06-03T00:00:59.110Z,12.80
2017-06-03T00:01:59.729Z,12.80
2017-06-03T00:03:00.344Z,12.76
2017-06-03T00:04:00.956Z,12.83
2017-06-03T00:05:01.570Z,12.76
2017-06-03T00:06:02.236Z,12.79
2017-06-03T00:07:02.851Z,12.80
2017-06-03T00:08:03.466Z,12.80
2017-06-03T00:09:04.082Z,12.80
2017-06-03T00:10:04.696Z,12.78
2017-06-03T00:11:05.310Z,12.79
2017-06-03T00:12:05.924Z,12.83
2017-06-03T00:13:06.544Z,12.87
2017-06-03T00:14:07.196Z,12.95
2017-06-03T00:15:07.810Z,12.94
2017-06-03T00:16:08.472Z,12.98
2017-06-03T00:17:09.089Z,12.95
2017-06-03T00:18:09.704Z,13.01
2017-06-03T00:19:10.318Z,13.03
2017-06-03T00:20:10.934Z,13.05
2017-06-03T00:21:11.550Z,13.09
2017-06-03T00:22:12.168Z,13.03
2017-06-03T00:23:12.779Z,13.03
2017-06-03T00:24:13.393Z,13.03
2017-06-03T00:25:14.008Z,13.05
2017-06-03T00:26:14.626Z,13.08
2017-06-03T00:27:15.242Z,13.12
2017-06-03T00:28:15.855Z,13.12
2017-06-03T00:29:16.471Z,13.25
2017-06-03T00:30:17.117Z,13.08
2017-06-03T00:31:17.736Z,13.22
2017-06-03T00:32:18.348Z,13.05
2017-06-03T00:33:18.963Z,13.18
2017-06-03T00:34:19.581Z,13.08
2017-06-03T00:35:20.196Z,13.20
2017-06-03T00:36:20.809Z,13.04
2017-06-03T00:37:21.425Z,13.09
2017-06-03T00:38:22.040Z,13.13
2017-06-03T00:39:22.654Z,13.11
2017-06-03T00:40:23.269Z,13.22
2017-06-03T00:41:23.940Z,13.20
2017-06-03T00:42:24.555Z,13.12
2017-06-03T00:43:25.167Z,13.04
2017-06-03T00:44:25.789Z,13.11
2017-06-03T00:45:26.407Z,13.18
2017-06-03T00:46:27.070Z,13.19
2017-06-03T00:47:27.683Z,13.15
2017-06-03T00:48:28.299Z,13.25
2017-06-03T00:49:28.944Z,13.23
2017-06-03T00:50:29.559Z,13.25
2017-06-03T00:51:30.180Z,13.12
2017-06-03T00:52:30.792Z,13.15
2017-06-03T00:53:31.408Z,13.16
2017-06-03T00:54:32.022Z,13.16
2017-06-03T00:55:32.636Z,13.13
2017-06-03T00:56:33.257Z,13.03
2017-06-03T00:57:33.869Z,13.04
2017-06-03T00:58:34.482Z,13.00
2017-06-03T00:59:35.103Z,13.09
2017-06-03T01:00:35.717Z,13.05
2017-06-03T01:01:36.383Z,13.08
2017-06-03T01:02:36.997Z,13.08
2017-06-03T01:03:37.618Z,13.05
2017-06-03T01:04:38.230Z,13.12
2017-06-03T01:05:38.853Z,13.09
2017-06-03T01:06:39.461Z,13.04
2017-06-03T01:07:40.083Z,13.11
2017-06-03T01:08:40.733Z,13.15
2017-06-03T01:09:41.347Z,13.05
2017-06-03T01:10:41.962Z,13.09
2017-06-03T01:11:42.628Z,13.04
2017-06-03T01:12:43.249Z,13.16
2017-06-03T01:13:43.861Z,13.12
2017-06-03T01:14:44.477Z,13.19
2017-06-03T01:15:45.126Z,13.13
2017-06-03T01:16:45.792Z,13.09
2017-06-03T01:17:46.442Z,13.15
2017-06-03T01:18:47.056Z,13.08
2017-06-03T01:19:47.710Z,13.01
2017-06-03T01:20:48.323Z,13.05
2017-06-03T01:21:48.936Z,13.05
2017-06-03T01:22:49.551Z,13.01
2017-06-03T01:23:50.171Z,13.00
2017-06-03T01:24:50.781Z,13.04
2017-06-03T01:25:51.396Z,12.97
2017-06-03T01:26:52.061Z,12.98
2017-06-03T01:27:52.676Z,12.93
2017-06-03T01:28:53.288Z,12.90
2017-06-03T01:29:53.904Z,12.94
2017-06-03T01:30:54.520Z,12.95
2017-06-03T01:31:55.185Z,12.90
2017-06-03T01:32:55.800Z,12.91
2017-06-03T01:33:56.415Z,12.86
2017-06-03T01:34:57.034Z,12.70
2017-06-03T01:35:57.647Z,12.70
2017-06-03T01:36:58.312Z,12.72
2017-06-03T01:37:58.932Z,12.72
2017-06-03T01:38:59.543Z,12.70
2017-06-03T01:40:00.160Z,12.55
2017-06-03T01:41:00.780Z,12.62
2017-06-03T01:42:01.398Z,12.55
2017-06-03T01:43:02.049Z,12.54
2017-06-03T01:44:02.663Z,12.58
2017-06-03T01:45:03.308Z,12.57
2017-06-03T01:46:03.923Z,12.53
2017-06-03T01:47:04.545Z,12.49
2017-06-03T01:48:05.161Z,12.45
2017-06-03T01:49:05.771Z,12.54
2017-06-03T01:50:06.424Z,12.50
2017-06-03T01:51:07.036Z,12.47
2017-06-03T01:52:07.658Z,12.47
2017-06-03T01:53:08.270Z,12.49
2017-06-03T01:54:08.890Z,12.50
2017-06-03T01:55:09.500Z,12.49
2017-06-03T01:56:10.117Z,12.62
2017-06-03T01:57:10.781Z,12.58
2017-06-03T01:58:11.402Z,12.47
2017-06-03T01:59:12.015Z,12.49
2017-06-03T02:00:12.629Z,12.55
2017-06-03T02:01:13.244Z,12.61
2017-06-03T02:02:13.907Z,12.57
2017-06-03T02:03:14.523Z,12.50
2017-06-03T02:04:15.136Z,12.46
2017-06-03T02:05:15.752Z,12.47
2017-06-03T02:06:16.373Z,12.50
2017-06-03T02:07:17.036Z,12.46
2017-06-03T02:08:17.674Z,12.37
2017-06-03T02:09:18.264Z,12.35
2017-06-03T02:10:18.912Z,12.32
2017-06-03T02:11:19.527Z,12.31
2017-06-03T02:12:20.141Z,12.27
2017-06-03T02:13:20.754Z,12.27
2017-06-03T02:14:21.367Z,12.28
2017-06-03T02:15:21.984Z,12.28
2017-06-03T02:16:22.600Z,12.22
2017-06-03T02:17:23.249Z,12.29
2017-06-03T02:18:23.864Z,12.22
2017-06-03T02:19:24.480Z,12.24
2017-06-03T02:20:25.094Z,12.12
2017-06-03T02:21:25.709Z,12.06
2017-06-03T02:22:26.374Z,12.21
2017-06-03T02:23:26.994Z,12.12
2017-06-03T02:24:27.614Z,12.09
2017-06-03T02:25:28.224Z,12.21
2017-06-03T02:26:28.839Z,12.12
2017-06-03T02:27:29.537Z,12.09
2017-06-03T02:28:30.150Z,12.18
2017-06-03T02:29:30.769Z,12.15
2017-06-03T02:30:31.381Z,12.20
2017-06-03T02:31:31.996Z,12.22
2017-06-03T02:32:32.612Z,12.04
2017-06-03T02:33:33.233Z,12.03
2017-06-03T02:34:33.844Z,12.03
2017-06-03T02:35:34.458Z,12.10
2017-06-03T02:36:35.077Z,12.00
2017-06-03T02:37:35.688Z,11.99
2017-06-03T02:38:36.301Z,12.09
2017-06-03T02:39:36.918Z,12.09
2017-06-03T02:40:37.532Z,12.09
2017-06-03T02:41:38.148Z,11.97
2017-06-03T02:42:38.762Z,11.91
2017-06-03T02:43:39.383Z,11.91
2017-06-03T02:44:39.992Z,11.95
2017-06-03T02:45:40.605Z,11.99
2017-06-03T02:46:41.219Z,11.95
2017-06-03T02:47:41.833Z,11.95
2017-06-03T02:48:42.449Z,11.94
2017-06-03T02:49:43.066Z,11.97
2017-06-03T02:50:43.681Z,11.94
2017-06-03T02:51:44.295Z,11.97
2017-06-03T02:52:44.915Z,12.02
2017-06-03T02:53:45.526Z,12.03
2017-06-03T02:54:46.139Z,12.00
2017-06-03T02:55:46.753Z,11.87
2017-06-03T02:56:47.368Z,11.84
2017-06-03T02:57:47.989Z,11.83
2017-06-03T02:58:48.607Z,11.75
2017-06-03T02:59:49.220Z,11.69
2017-06-03T03:00:49.864Z,11.77
2017-06-03T03:01:50.478Z,11.69
2017-06-03T03:02:51.092Z,11.73
2017-06-03T03:03:51.705Z,11.80
2017-06-03T03:04:52.319Z,11.69
2017-06-03T03:05:52.932Z,11.70
2017-06-03T03:06:53.546Z,11.75
2017-06-03T03:07:54.210Z,11.70
2017-06-03T03:08:54.825Z,11.65
2017-06-03T03:09:55.438Z,11.68
2017-06-03T03:10:56.052Z,11.75
2017-06-03T03:11:56.670Z,11.68
2017-06-03T03:12:57.331Z,11.78
2017-06-03T03:13:57.946Z,11.70
2017-06-03T03:14:58.561Z,11.73
2017-06-03T03:15:59.176Z,11.73
2017-06-03T03:16:59.789Z,11.77
2017-06-03T03:18:00.452Z,11.65
2017-06-03T03:19:01.066Z,11.62
2017-06-03T03:20:01.713Z,11.66
2017-06-03T03:21:02.358Z,11.63
2017-06-03T03:22:02.971Z,11.70
2017-06-03T03:23:03.636Z,11.59
2017-06-03T03:24:04.250Z,11.59
2017-06-03T03:25:04.864Z,11.62
2017-06-03T03:26:05.486Z,11.65
2017-06-03T03:27:06.096Z,11.66
2017-06-03T03:28:06.760Z,11.59
2017-06-03T03:29:07.382Z,11.59
2017-06-03T03:30:08.019Z,11.59
2017-06-03T03:31:08.634Z,11.60
2017-06-03T03:32:09.247Z,11.59
2017-06-03T03:33:09.943Z,11.57
2017-06-03T03:34:10.589Z,11.54
2017-06-03T03:35:11.207Z,11.57
2017-06-03T03:36:11.818Z,11.59
2017-06-03T03:37:12.437Z,11.48
2017-06-03T03:38:13.111Z,11.51
2017-06-03T03:39:13.716Z,11.51
2017-06-03T03:40:14.330Z,11.48
2017-06-03T03:41:14.945Z,11.47
2017-06-03T03:42:15.558Z,11.44
2017-06-03T03:43:16.223Z,11.45
2017-06-03T03:44:16.839Z,11.50
2017-06-03T03:45:17.452Z,11.43
2017-06-03T03:46:18.064Z,11.44
2017-06-03T03:47:18.678Z,11.37
2017-06-03T03:48:19.341Z,11.37
2017-06-03T03:49:19.954Z,11.32
2017-06-03T03:50:20.601Z,11.37
2017-06-03T03:51:21.220Z,11.33
2017-06-03T03:52:21.840Z,11.26
2017-06-03T03:53:22.509Z,11.33
2017-06-03T03:54:23.121Z,11.27
2017-06-03T03:55:23.736Z,11.32
2017-06-03T03:56:24.350Z,11.26
2017-06-03T03:57:24.972Z,11.30
2017-06-03T03:58:25.585Z,11.22
2017-06-03T03:59:26.202Z,11.26
2017-06-03T04:00:26.820Z,11.19
2017-06-03T04:01:27.434Z,11.27
2017-06-03T04:02:28.079Z,11.27
2017-06-03T04:03:28.694Z,11.32
2017-06-03T04:04:29.313Z,11.29
2017-06-03T04:05:29.926Z,11.32
2017-06-03T04:06:30.542Z,11.29
2017-06-03T04:07:31.190Z,11.32
2017-06-03T04:08:31.862Z,11.35
2017-06-03T04:09:32.482Z,11.30
2017-06-03T04:10:33.091Z,11.30
2017-06-03T04:11:33.709Z,11.27
2017-06-03T04:12:34.322Z,11.35
2017-06-03T04:13:34.988Z,11.33
2017-06-03T04:14:35.605Z,11.33
2017-06-03T04:15:36.218Z,11.40
2017-06-03T04:16:36.831Z,11.37
2017-06-03T04:17:37.451Z,11.36
2017-06-03T04:18:38.064Z,11.29
2017-06-03T04:19:38.679Z,11.51
2017-06-03T04:20:39.298Z,11.37
2017-06-03T04:21:39.913Z,11.30
2017-06-03T04:22:40.527Z,11.32
2017-06-03T04:23:41.192Z,11.41
2017-06-03T04:24:41.807Z,11.32
2017-06-03T04:25:42.423Z,11.40
2017-06-03T04:26:43.072Z,11.35
2017-06-03T04:27:43.685Z,11.30
2017-06-03T04:28:44.301Z,11.27
2017-06-03T04:29:44.916Z,11.41
2017-06-03T04:30:45.564Z,11.27
2017-06-03T04:31:46.183Z,11.47
2017-06-03T04:32:46.795Z,11.41
2017-06-03T04:33:47.408Z,11.40
2017-06-03T04:34:48.056Z,11.48
2017-06-03T04:35:48.670Z,11.48
2017-06-03T04:36:49.291Z,11.51
2017-06-03T04:37:49.903Z,11.45
2017-06-03T04:38:50.570Z,11.48
2017-06-03T04:39:51.183Z,11.57
2017-06-03T04:40:51.840Z,11.59
2017-06-03T04:41:52.451Z,11.55
2017-06-03T04:42:53.061Z,11.62
2017-06-03T04:43:53.727Z,11.57
2017-06-03T04:44:54.354Z,11.66
2017-06-03T04:45:54.957Z,11.63
2017-06-03T04:46:55.576Z,11.65
2017-06-03T04:47:56.193Z,11.69
2017-06-03T04:48:56.856Z,11.62
2017-06-03T04:49:57.470Z,11.55
2017-06-03T04:50:58.118Z,11.59
2017-06-03T04:51:58.740Z,11.62
2017-06-03T04:52:59.352Z,11.60
2017-06-03T04:54:00.022Z,11.62
2017-06-03T04:55:00.639Z,11.60
2017-06-03T04:56:01.289Z,11.55
2017-06-03T04:57:01.906Z,11.62
2017-06-03T04:58:02.561Z,11.57
2017-06-03T04:59:03.260Z,11.60
2017-06-03T05:00:03.881Z,11.59
2017-06-03T05:01:04.498Z,11.57
2017-06-03T05:02:05.112Z,11.55
2017-06-03T05:03:05.758Z,11.54
2017-06-03T05:04:06.421Z,11.60
2017-06-03T05:05:07.071Z,11.59
2017-06-03T05:06:07.697Z,11.54
2017-06-03T05:07:08.304Z,11.48
2017-06-03T05:08:08.921Z,11.50
2017-06-03T05:09:09.591Z,11.57
2017-06-03T05:10:10.210Z,11.51
2017-06-03T05:11:10.829Z,11.57
2017-06-03T05:12:11.440Z,11.59
2017-06-03T05:13:12.093Z,11.54
2017-06-03T05:14:12.756Z,11.55
2017-06-03T05:15:13.399Z,11.60
2017-06-03T05:16:13.990Z,11.59
2017-06-03T05:17:14.602Z,11.68
2017-06-03T05:18:15.219Z,11.60
2017-06-03T05:19:15.882Z,11.66
2017-06-03T05:20:16.497Z,11.77
2017-06-03T05:21:17.115Z,11.69
2017-06-03T05:22:17.726Z,11.78
2017-06-03T05:23:18.342Z,11.75
2017-06-03T05:24:19.008Z,11.75
2017-06-03T05:25:19.624Z,11.73
2017-06-03T05:26:20.237Z,11.81
2017-06-03T05:27:20.883Z,11.80
2017-06-03T05:28:21.500Z,11.83
2017-06-03T05:29:22.195Z,11.86
2017-06-03T05:30:22.809Z,11.91
2017-06-03T05:31:23.424Z,11.97
2017-06-03T05:32:24.040Z,11.90
2017-06-03T05:33:24.655Z,11.94
2017-06-03T05:34:25.270Z,11.95
2017-06-03T05:35:25.919Z,11.97
2017-06-03T05:36:26.538Z,12.00
2017-06-03T05:37:27.155Z,12.06
2017-06-03T05:38:27.769Z,12.09
2017-06-03T05:39:28.467Z,12.07
2017-06-03T05:40:29.083Z,12.09
2017-06-03T05:41:29.701Z,12.07
2017-06-03T05:42:30.324Z,12.12
2017-06-03T05:43:30.935Z,12.17
2017-06-03T05:44:31.600Z,12.17
2017-06-03T05:45:32.250Z,12.21
2017-06-03T05:46:32.865Z,12.24
2017-06-03T05:47:33.482Z,12.25
2017-06-03T05:48:34.099Z,12.28
2017-06-03T05:49:34.720Z,12.42
2017-06-03T05:50:35.340Z,12.39
2017-06-03T05:51:35.953Z,12.36
2017-06-03T05:52:36.574Z,12.46
2017-06-03T05:53:37.189Z,12.49
2017-06-03T05:54:37.856Z,12.53
2017-06-03T05:55:38.474Z,12.47
2017-06-03T05:56:39.091Z,12.60
2017-06-03T05:57:39.709Z,12.62
2017-06-03T05:58:40.326Z,12.58
2017-06-03T05:59:41.025Z,12.58
2017-06-03T06:00:41.680Z,12.67
2017-06-03T06:01:42.301Z,12.73
2017-06-03T06:02:42.948Z,12.70
2017-06-03T06:03:43.570Z,12.75
2017-06-03T06:04:44.237Z,12.72
2017-06-03T06:05:44.889Z,12.68
2017-06-03T06:06:45.505Z,12.78
2017-06-03T06:07:46.130Z,12.72
2017-06-03T06:08:46.746Z,12.79
2017-06-03T06:09:47.414Z,12.80
2017-06-03T06:10:48.031Z,12.82
2017-06-03T06:11:48.681Z,12.80
2017-06-03T06:12:49.297Z,12.70
2017-06-03T06:13:49.920Z,12.68
2017-06-03T06:14:50.584Z,12.67
2017-06-03T06:15:51.240Z,12.70
2017-06-03T06:16:51.855Z,12.72
2017-06-03T06:17:52.472Z,12.73
2017-06-03T06:18:53.089Z,12.67
2017-06-03T06:19:53.760Z,12.80
2017-06-03T06:20:54.376Z,12.91
2017-06-03T06:21:54.992Z,12.93
2017-06-03T06:22:55.620Z,13.00
2017-06-03T06:23:56.235Z,13.01
2017-06-03T06:24:56.901Z,13.05
2017-06-03T06:25:57.518Z,13.11
2017-06-03T06:26:58.134Z,13.16
2017-06-03T06:27:58.752Z,13.27
2017-06-03T06:28:59.369Z,13.11
2017-06-03T06:30:00.045Z,13.20
2017-06-03T06:31:00.659Z,13.23
2017-06-03T06:32:01.283Z,13.19
2017-06-03T06:33:01.897Z,13.19
2017-06-03T06:34:02.523Z,13.28
2017-06-03T06:35:03.187Z,13.25
2017-06-03T06:36:03.836Z,13.27
2017-06-03T06:37:04.454Z,13.27
2017-06-03T06:38:05.071Z,13.25
2017-06-03T06:39:05.689Z,13.25
2017-06-03T06:40:06.357Z,13.22
2017-06-03T06:41:06.973Z,13.16
2017-06-03T06:42:07.622Z,13.18
2017-06-03T06:43:08.240Z,13.16
2017-06-03T06:44:08.862Z,13.12
2017-06-03T06:45:09.527Z,13.23
2017-06-03T06:46:10.146Z,13.15
2017-06-03T06:47:10.762Z,13.16
2017-06-03T06:48:11.379Z,13.13
2017-06-03T06:49:11.998Z,13.19
2017-06-03T06:50:12.666Z,13.25
2017-06-03T06:51:13.284Z,13.31
2017-06-03T06:52:13.900Z,13.27
2017-06-03T06:53:14.518Z,13.37
2017-06-03T06:54:15.137Z,13.33
2017-06-03T06:55:15.754Z,13.50
2017-06-03T06:56:16.390Z,13.52
2017-06-03T06:57:17.022Z,13.52
2017-06-03T06:58:17.640Z,13.57
2017-06-03T06:59:18.257Z,13.57
2017-06-03T07:00:18.929Z,13.63
2017-06-03T07:01:19.545Z,13.70
2017-06-03T07:02:20.164Z,13.65
2017-06-03T07:03:20.780Z,13.75
2017-06-03T07:04:21.401Z,13.85
2017-06-03T07:05:22.019Z,13.78
2017-06-03T07:06:22.638Z,13.83
2017-06-03T07:07:23.255Z,13.90
2017-06-03T07:08:23.879Z,13.86
2017-06-03T07:09:24.492Z,13.95
2017-06-03T07:10:25.163Z,13.83
2017-06-03T07:11:25.786Z,13.81
2017-06-03T07:12:26.403Z,13.89
2017-06-03T07:13:27.018Z,13.86
2017-06-03T07:14:27.676Z,13.93
2017-06-03T07:15:28.382Z,14.07
2017-06-03T07:16:29.000Z,14.07
2017-06-03T07:17:29.615Z,14.07
2017-06-03T07:18:30.234Z,14.07
2017-06-03T07:19:30.850Z,13.97
2017-06-03T07:20:31.518Z,13.96
2017-06-03T07:21:32.136Z,13.95
2017-06-03T07:22:32.756Z,13.87
2017-06-03T07:23:33.371Z,13.90
2017-06-03T07:24:33.989Z,13.92
2017-06-03T07:25:34.609Z,13.83
2017-06-03T07:26:35.233Z,13.93
2017-06-03T07:27:35.850Z,13.95
2017-06-03T07:28:36.467Z,13.97
2017-06-03T07:29:37.085Z,13.95
2017-06-03T07:30:37.755Z,13.97
2017-06-03T07:31:38.377Z,14.12
2017-06-03T07:32:38.991Z,14.07
2017-06-03T07:33:39.614Z,14.12
2017-06-03T07:34:40.231Z,14.11
2017-06-03T07:35:40.848Z,14.07
2017-06-03T07:36:41.465Z,14.00
2017-06-03T07:37:42.084Z,13.97
2017-06-03T07:38:42.707Z,13.95
2017-06-03T07:39:43.321Z,13.96
2017-06-03T07:40:43.991Z,13.86
2017-06-03T07:41:44.610Z,13.86
2017-06-03T07:42:45.258Z,13.90
2017-06-03T07:43:45.881Z,13.96
2017-06-03T07:44:46.498Z,14.03
2017-06-03T07:45:47.367Z,14.07
2017-06-03T07:46:47.985Z,14.08
2017-06-03T07:47:48.604Z,14.28
2017-06-03T07:48:49.227Z,14.17
2017-06-03T07:49:49.844Z,14.37
2017-06-03T07:50:50.467Z,14.37
2017-06-03T07:51:51.084Z,14.44
2017-06-03T07:52:51.704Z,14.55
2017-06-03T07:53:52.322Z,14.60
2017-06-03T07:54:52.945Z,14.68
2017-06-03T07:55:53.812Z,14.69
2017-06-03T07:56:54.432Z,14.66
2017-06-03T07:57:55.052Z,14.69
2017-06-03T07:58:55.672Z,14.60
2017-06-03T07:59:56.295Z,14.62
2017-06-03T08:00:56.966Z,14.68
2017-06-03T08:01:57.588Z,14.79
2017-06-03T08:02:58.204Z,14.88
2017-06-03T08:03:58.821Z,14.69
2017-06-03T08:04:59.445Z,14.66
2017-06-03T08:06:00.112Z,14.84
2017-06-03T08:07:00.737Z,14.77
2017-06-03T08:08:01.352Z,14.82
2017-06-03T08:09:01.970Z,14.86
2017-06-03T08:10:02.594Z,14.84
2017-06-03T08:11:03.253Z,14.86
2017-06-03T08:12:03.869Z,14.85
2017-06-03T08:13:04.494Z,14.99
2017-06-03T08:14:05.108Z,14.99
2017-06-03T08:15:05.728Z,15.03
2017-06-03T08:16:06.447Z,15.02
2017-06-03T08:17:07.065Z,15.06
2017-06-03T08:18:07.722Z,15.14
2017-06-03T08:19:08.339Z,15.19
2017-06-03T08:20:08.964Z,15.28
2017-06-03T08:21:09.629Z,15.33
2017-06-03T08:22:10.248Z,15.46
2017-06-03T08:23:10.898Z,15.49
2017-06-03T08:24:11.515Z,15.43
2017-06-03T08:25:12.135Z,15.33
2017-06-03T08:26:12.755Z,15.31
2017-06-03T08:27:13.374Z,15.29
2017-06-03T08:28:13.993Z,15.21
2017-06-03T08:29:14.616Z,15.28
2017-06-03T08:30:15.232Z,15.27
2017-06-03T08:31:15.902Z,15.15
2017-06-03T08:32:16.520Z,15.22
2017-06-03T08:33:17.139Z,15.19
2017-06-03T08:34:17.757Z,15.21
2017-06-03T08:35:18.383Z,15.28
2017-06-03T08:36:19.049Z,15.36
2017-06-03T08:37:19.667Z,15.22
2017-06-03T08:38:20.284Z,15.29
2017-06-03T08:39:20.903Z,15.33
2017-06-03T08:40:21.523Z,15.47
2017-06-03T08:41:22.141Z,15.57
2017-06-03T08:42:22.760Z,15.75
2017-06-03T08:43:23.378Z,15.79
2017-06-03T08:44:24.002Z,15.82
2017-06-03T08:45:24.620Z,15.86
2017-06-03T08:46:25.238Z,15.94
2017-06-03T08:47:25.856Z,15.98
2017-06-03T08:48:26.475Z,16.01
2017-06-03T08:49:27.098Z,16.01
2017-06-03T08:50:27.755Z,16.01
2017-06-03T08:51:28.451Z,15.94
2017-06-03T08:52:29.071Z,15.88
2017-06-03T08:53:29.697Z,15.72
2017-06-03T08:54:30.311Z,15.72
2017-06-03T08:55:30.928Z,15.82
2017-06-03T08:56:31.603Z,15.88
2017-06-03T08:57:32.220Z,15.84
2017-06-03T08:58:32.839Z,15.92
2017-06-03T08:59:33.458Z,16.02
2017-06-03T09:00:34.076Z,16.04
2017-06-03T09:01:34.746Z,16.01
2017-06-03T09:02:35.375Z,16.04
2017-06-03T09:03:35.988Z,16.08
2017-06-03T09:04:36.605Z,16.23
2017-06-03T09:05:37.224Z,16.39
2017-06-03T09:06:37.845Z,16.41
2017-06-03T09:07:38.465Z,16.51
2017-06-03T09:08:39.083Z,16.57
2017-06-03T09:09:39.702Z,16.65
2017-06-03T09:10:40.320Z,16.60
2017-06-03T09:11:40.992Z,16.57
2017-06-03T09:12:41.618Z,16.72
2017-06-03T09:13:42.240Z,16.75
2017-06-03T09:14:42.858Z,16.84
2017-06-03T09:15:43.478Z,16.93
2017-06-03T09:16:44.155Z,16.84
2017-06-03T09:17:44.782Z,16.84
2017-06-03T09:18:45.393Z,16.94
2017-06-03T09:19:46.015Z,16.97
2017-06-03T09:20:46.639Z,17.05
2017-06-03T09:21:47.306Z,16.94
2017-06-03T09:22:47.926Z,17.01
2017-06-03T09:23:48.553Z,16.94
2017-06-03T09:24:49.169Z,16.78
2017-06-03T09:25:49.795Z,16.71
2017-06-03T09:26:50.412Z,16.68
2017-06-03T09:27:51.037Z,16.66
2017-06-03T09:28:51.692Z,16.66
2017-06-03T09:29:52.313Z,16.64
2017-06-03T09:30:52.937Z,16.64
2017-06-03T09:31:53.555Z,16.57
2017-06-03T09:32:54.173Z,16.56
2017-06-03T09:33:54.795Z,16.43
2017-06-03T09:34:55.416Z,16.47
2017-06-03T09:35:56.036Z,16.33
2017-06-03T09:36:56.656Z,16.41
2017-06-03T09:37:57.309Z,16.50
2017-06-03T09:38:57.928Z,16.49
2017-06-03T09:39:58.546Z,16.51
2017-06-03T09:40:59.167Z,16.51
2017-06-03T09:41:59.878Z,16.53
2017-06-03T09:43:00.493Z,16.57
2017-06-03T09:44:01.112Z,16.64
2017-06-03T09:45:01.738Z,16.54
2017-06-03T09:46:02.390Z,16.56
2017-06-03T09:47:03.068Z,16.50
2017-06-03T09:48:03.722Z,16.42
2017-06-03T09:49:04.342Z,16.46
2017-06-03T09:50:04.968Z,16.42
2017-06-03T09:51:05.585Z,16.38
2017-06-03T09:52:06.255Z,16.33
2017-06-03T09:53:06.875Z,16.26
2017-06-03T09:54:07.495Z,16.26
2017-06-03T09:55:08.120Z,16.12
2017-06-03T09:56:08.774Z,16.21
2017-06-03T09:57:09.441Z,16.15
2017-06-03T09:58:10.060Z,16.12
2017-06-03T09:59:10.687Z,16.23
2017-06-03T10:00:11.303Z,16.17
2017-06-03T10:01:11.923Z,16.21
2017-06-03T10:02:12.879Z,16.17
2017-06-03T10:03:13.503Z,16.20
2017-06-03T10:04:14.128Z,16.24
2017-06-03T10:05:14.750Z,16.26
2017-06-03T10:06:15.365Z,16.33
2017-06-03T10:07:16.068Z,16.33
2017-06-03T10:08:16.695Z,16.36
2017-06-03T10:09:17.313Z,16.38
2017-06-03T10:10:17.932Z,16.42
2017-06-03T10:11:18.553Z,16.42
2017-06-03T10:12:19.212Z,16.60
2017-06-03T10:13:19.829Z,16.65
2017-06-03T10:14:20.456Z,16.76
2017-06-03T10:15:21.080Z,16.96
2017-06-03T10:16:21.698Z,16.97
2017-06-03T10:17:22.366Z,17.15
2017-06-03T10:18:22.987Z,17.02
2017-06-03T10:19:23.612Z,17.02
2017-06-03T10:20:24.229Z,16.87
2017-06-03T10:21:24.849Z,16.84
2017-06-03T10:22:25.535Z,16.75
2017-06-03T10:23:26.148Z,16.71
2017-06-03T10:24:26.767Z,16.86
2017-06-03T10:25:27.393Z,16.71
2017-06-03T10:26:28.011Z,16.71
2017-06-03T10:27:28.636Z,16.76
2017-06-03T10:28:29.254Z,16.81
2017-06-03T10:29:29.874Z,16.83
2017-06-03T10:30:30.493Z,16.74
2017-06-03T10:31:31.121Z,16.65
2017-06-03T10:32:31.738Z,16.58
2017-06-03T10:33:32.360Z,16.58
2017-06-03T10:34:32.981Z,16.61
2017-06-03T10:35:33.599Z,16.66
2017-06-03T10:36:34.223Z,16.83
2017-06-03T10:37:34.838Z,16.83
2017-06-03T10:38:35.459Z,16.91
2017-06-03T10:39:36.078Z,17.02
2017-06-03T10:40:36.699Z,17.08
2017-06-03T10:41:37.320Z,17.27
2017-06-03T10:42:37.990Z,17.34
2017-06-03T10:43:38.611Z,17.36
2017-06-03T10:44:39.231Z,17.57
2017-06-03T10:45:39.856Z,17.78
2017-06-03T10:46:40.476Z,17.95
2017-06-03T10:47:41.095Z,18.11
2017-06-03T10:48:41.715Z,18.22
2017-06-03T10:49:42.335Z,18.29
2017-06-03T10:50:42.957Z,18.28
2017-06-03T10:51:43.581Z,18.22
2017-06-03T10:52:44.238Z,18.33
2017-06-03T10:53:44.856Z,18.33
2017-06-03T10:54:45.484Z,18.47
2017-06-03T10:55:46.107Z,18.44
2017-06-03T10:56:46.724Z,18.55
2017-06-03T10:57:47.347Z,18.55
2017-06-03T10:58:47.968Z,18.45
2017-06-03T10:59:48.589Z,18.43
2017-06-03T11:00:49.209Z,18.35
2017-06-03T11:01:49.829Z,18.33
2017-06-03T11:02:50.501Z,18.29
2017-06-03T11:03:51.127Z,18.22
2017-06-03T11:04:51.747Z,18.20
2017-06-03T11:05:52.367Z,18.16
2017-06-03T11:06:52.987Z,17.95
2017-06-03T11:07:53.663Z,18.05
2017-06-03T11:08:54.279Z,17.97
2017-06-03T11:09:54.906Z,17.89
2017-06-03T11:10:55.529Z,17.80
2017-06-03T11:11:56.150Z,17.85
2017-06-03T11:12:56.826Z,17.82
2017-06-03T11:13:57.449Z,17.72
2017-06-03T11:14:58.067Z,17.78
2017-06-03T11:15:58.688Z,17.78
2017-06-03T11:16:59.315Z,17.79
2017-06-03T11:18:00.233Z,17.71
2017-06-03T11:19:00.853Z,17.54
2017-06-03T11:20:01.478Z,17.39
2017-06-03T11:21:02.097Z,17.27
2017-06-03T11:22:02.722Z,17.14
2017-06-03T11:23:03.397Z,17.12
2017-06-03T11:24:04.051Z,16.96
2017-06-03T11:25:04.674Z,16.91
2017-06-03T11:26:05.300Z,16.99
2017-06-03T11:27:05.959Z,16.99
2017-06-03T11:28:06.583Z,17.09
2017-06-03T11:29:07.243Z,17.14
2017-06-03T11:30:07.867Z,17.20
2017-06-03T11:31:08.484Z,17.14
2017-06-03T11:32:09.103Z,17.12
2017-06-03T11:33:09.773Z,17.19
2017-06-03T11:34:10.393Z,17.24
2017-06-03T11:35:11.014Z,17.22
2017-06-03T11:36:11.674Z,17.24
2017-06-03T11:37:12.298Z,17.23
2017-06-03T11:38:13.167Z,17.24
2017-06-03T11:39:13.793Z,17.27
2017-06-03T11:40:14.411Z,17.39
2017-06-03T11:41:15.033Z,17.51
2017-06-03T11:42:15.654Z,17.64
2017-06-03T11:43:16.581Z,17.70
2017-06-03T11:44:17.205Z,17.70
2017-06-03T11:45:17.863Z,17.67
2017-06-03T11:46:18.487Z,17.65
2017-06-03T11:47:19.111Z,17.67
2017-06-03T11:48:19.779Z,17.65
2017-06-03T11:49:20.399Z,17.82
2017-06-03T11:50:21.022Z,17.82
2017-06-03T11:51:21.652Z,17.97
2017-06-03T11:52:22.307Z,18.01
2017-06-03T11:53:22.981Z,18.05
2017-06-03T11:54:23.600Z,18.11
2017-06-03T11:55:24.254Z,18.11
2017-06-03T11:56:24.909Z,18.13
2017-06-03T11:57:25.530Z,18.22
2017-06-03T11:58:26.202Z,18.28
2017-06-03T11:59:26.824Z,18.22
2017-06-03T12:00:27.444Z,18.08
2017-06-03T12:01:28.069Z,18.08
2017-06-03T12:02:28.689Z,18.13
2017-06-03T12:03:29.566Z,18.13
2017-06-03T12:04:30.185Z,18.20
2017-06-03T12:05:30.812Z,18.26
2017-06-03T12:06:31.472Z,18.41
2017-06-03T12:07:32.152Z,18.50
2017-06-03T12:08:32.798Z,18.56
2017-06-03T12:09:33.419Z,18.45
2017-06-03T12:10:34.041Z,18.41
2017-06-03T12:11:34.662Z,18.28
2017-06-03T12:12:35.284Z,18.15
2017-06-03T12:13:35.957Z,18.08
2017-06-03T12:14:36.584Z,18.07
2017-06-03T12:15:37.202Z,18.11
2017-06-03T12:16:37.829Z,18.20
2017-06-03T12:17:38.449Z,18.11
2017-06-03T12:18:39.069Z,18.20
2017-06-03T12:19:39.691Z,18.08
2017-06-03T12:20:40.313Z,18.08
2017-06-03T12:21:40.933Z,18.07
2017-06-03T12:22:41.556Z,18.11
2017-06-03T12:23:42.278Z,18.07
2017-06-03T12:24:42.898Z,18.08
2017-06-03T12:25:43.527Z,18.15
2017-06-03T12:26:44.146Z,18.10
2017-06-03T12:27:44.766Z,18.07
2017-06-03T12:28:45.473Z,18.03
2017-06-03T12:29:46.100Z,18.16
2017-06-03T12:30:46.719Z,18.28
2017-06-03T12:31:47.347Z,18.23
2017-06-03T12:32:47.970Z,18.23
2017-06-03T12:33:48.637Z,18.22
2017-06-03T12:34:49.262Z,18.15
2017-06-03T12:35:49.884Z,18.23
2017-06-03T12:36:50.506Z,18.11
2017-06-03T12:37:51.127Z,18.31
2017-06-03T12:38:51.798Z,18.47
2017-06-03T12:39:52.420Z,18.66
2017-06-03T12:40:53.041Z,18.71
2017-06-03T12:41:53.672Z,18.80
2017-06-03T12:42:54.287Z,18.83
2017-06-03T12:43:54.913Z,18.80
2017-06-03T12:44:55.539Z,18.71
2017-06-03T12:45:56.165Z,18.68
2017-06-03T12:46:56.784Z,18.68
2017-06-03T12:47:57.410Z,18.63
2017-06-03T12:48:58.082Z,18.63
2017-06-03T12:49:58.710Z,18.59
2017-06-03T12:50:59.327Z,18.53
2017-06-03T12:51:59.951Z,18.52
2017-06-03T12:53:00.575Z,18.44
2017-06-03T12:54:01.251Z,18.53
2017-06-03T12:55:01.871Z,18.58
2017-06-03T12:56:02.501Z,18.81
2017-06-03T12:57:03.119Z,18.98
2017-06-03T12:58:03.742Z,18.99
2017-06-03T12:59:04.418Z,18.89
2017-06-03T13:00:05.039Z,18.98
2017-06-03T13:01:05.661Z,19.08